createdAt,value
2018-09-30T00:01:48.432Z,101706.94
2018-09-30T00:04:16.459Z,101707.85
2018-09-30T00:06:44.479Z,101704.41
2018-09-30T00:09:12.496Z,101702.75
2018-09-30T00:11:40.515Z,101697.92
2018-09-30T00:14:08.708Z,101687.61
2018-09-30T00:16:36.724Z,101682.06
2018-09-30T00:19:04.992Z,101676.52
2018-09-30T00:21:33.007Z,101671.88
2018-09-30T00:24:06.404Z,101665.45
2018-09-30T00:26:39.663Z,101657.81
2018-09-30T00:29:07.682Z,101656.27
2018-09-30T00:31:35.754Z,101647.78
2018-09-30T00:34:09.287Z,101647.83
2018-09-30T00:36:37.915Z,101645.79
2018-09-30T00:39:06.520Z,101638.15
2018-09-30T00:41:34.536Z,101643.75
2018-09-30T00:44:02.543Z,101642.48
2018-09-30T00:46:30.552Z,101642.17
2018-09-30T00:48:58.564Z,101638.52
2018-09-30T00:51:26.571Z,101633.95
2018-09-30T00:53:54.585Z,101635.75
2018-09-30T00:56:22.755Z,101637.91
2018-09-30T00:58:50.772Z,101627.59
2018-09-30T01:01:18.774Z,101613.84
2018-09-30T01:03:46.799Z,101617.78
2018-09-30T01:06:14.827Z,101607.92
2018-09-30T01:08:43.735Z,101602.77
2018-09-30T01:11:12.381Z,101596.89
2018-09-30T01:13:40.556Z,101598.56
2018-09-30T01:16:08.896Z,101591.27
2018-09-30T01:18:36.905Z,101586.97
2018-09-30T01:21:05.047Z,101582.23
2018-09-30T01:23:33.071Z,101580.11
2018-09-30T01:26:01.090Z,101579.25
2018-09-30T01:28:29.109Z,101570.19
2018-09-30T01:30:57.119Z,101575.42
2018-09-30T01:33:25.123Z,101569.39
2018-09-30T01:35:53.144Z,101566.56
2018-09-30T01:38:21.143Z,101569.81
2018-09-30T01:40:49.158Z,101575.05
2018-09-30T01:43:17.175Z,101575.06
2018-09-30T01:45:45.171Z,101573.83
2018-09-30T01:48:13.168Z,101566.11
2018-09-30T01:50:41.179Z,101557.00
2018-09-30T01:53:09.191Z,101558.23
2018-09-30T01:55:37.196Z,101544.47
2018-09-30T01:58:05.404Z,101544.85
2018-09-30T02:00:33.422Z,101539.19
2018-09-30T02:03:01.416Z,101539.19
2018-09-30T02:05:29.427Z,101537.02
2018-09-30T02:07:57.447Z,101534.91
2018-09-30T02:10:25.451Z,101530.12
2018-09-30T02:12:53.475Z,101531.03
2018-09-30T02:15:21.487Z,101531.55
2018-09-30T02:17:49.531Z,101522.59
2018-09-30T02:20:17.551Z,101530.80
2018-09-30T02:22:45.564Z,101518.84
2018-09-30T02:25:13.577Z,101521.05
2018-09-30T02:27:41.731Z,101514.66
2018-09-30T02:30:09.739Z,101515.14
2018-09-30T02:32:37.736Z,101508.78
2018-09-30T02:35:05.741Z,101509.72
2018-09-30T02:37:33.755Z,101506.77
2018-09-30T02:40:01.771Z,101506.40
2018-09-30T02:42:29.816Z,101505.11
2018-09-30T02:44:57.819Z,101496.95
2018-09-30T02:47:25.843Z,101492.72
2018-09-30T02:49:54.048Z,101492.72
2018-09-30T02:52:22.049Z,101500.04
2018-09-30T02:54:50.060Z,101495.30
2018-09-30T02:57:18.076Z,101486.73
2018-09-30T02:59:46.075Z,101485.06
2018-09-30T03:02:14.093Z,101483.34
2018-09-30T03:04:42.108Z,101482.98
2018-09-30T03:07:15.515Z,101480.45
2018-09-30T03:09:43.751Z,101476.67
2018-09-30T03:12:11.948Z,101477.17
2018-09-30T03:14:39.976Z,101476.75
2018-09-30T03:17:08.023Z,101469.04
2018-09-30T03:19:36.340Z,101467.38
2018-09-30T03:22:04.559Z,101473.95
2018-09-30T03:24:32.570Z,101467.98
2018-09-30T03:27:00.584Z,101462.81
2018-09-30T03:29:28.616Z,101461.53
2018-09-30T03:31:56.995Z,101457.70
2018-09-30T03:34:25.004Z,101462.48
2018-09-30T03:36:53.024Z,101464.25
2018-09-30T03:39:21.060Z,101454.39
2018-09-30T03:41:49.072Z,101451.83
2018-09-30T03:44:17.358Z,101448.49
2018-09-30T03:46:45.463Z,101447.30
2018-09-30T03:49:13.506Z,101444.78
2018-09-30T03:51:41.691Z,101446.36
2018-09-30T03:54:09.696Z,101448.70
2018-09-30T03:56:37.916Z,101439.28
2018-09-30T03:59:06.344Z,101438.84
2018-09-30T04:01:34.477Z,101447.09
2018-09-30T04:04:03.030Z,101444.56
2018-09-30T04:06:31.228Z,101449.73
2018-09-30T04:08:59.244Z,101443.22
2018-09-30T04:11:27.249Z,101447.95
2018-09-30T04:13:55.429Z,101440.56
2018-09-30T04:16:23.455Z,101447.84
2018-09-30T04:18:51.876Z,101449.99
2018-09-30T04:21:19.892Z,101447.02
2018-09-30T04:23:47.910Z,101448.75
2018-09-30T04:26:15.936Z,101448.70
2018-09-30T04:28:44.164Z,101455.59
2018-09-30T04:31:12.227Z,101454.80
2018-09-30T04:33:40.252Z,101461.31
2018-09-30T04:36:08.269Z,101450.58
2018-09-30T04:38:36.277Z,101449.80
2018-09-30T04:41:05.131Z,101439.45
2018-09-30T04:43:33.133Z,101439.56
2018-09-30T04:46:01.275Z,101442.20
2018-09-30T04:48:29.280Z,101440.09
2018-09-30T04:50:57.408Z,101437.20
2018-09-30T04:53:25.779Z,101435.59
2018-09-30T04:55:53.977Z,101435.27
2018-09-30T04:58:22.739Z,101429.29
2018-09-30T05:00:51.803Z,101435.75
2018-09-30T05:03:19.927Z,101427.19
2018-09-30T05:05:48.060Z,101422.90
2018-09-30T05:08:16.355Z,101423.34
2018-09-30T05:10:44.407Z,101423.05
2018-09-30T05:13:12.411Z,101423.55
2018-09-30T05:15:40.595Z,101422.74
2018-09-30T05:18:08.636Z,101423.16
2018-09-30T05:20:36.730Z,101419.77
2018-09-30T05:23:05.044Z,101416.38
2018-09-30T05:25:33.200Z,101416.55
2018-09-30T05:28:01.200Z,101418.76
2018-09-30T05:30:29.607Z,101413.64
2018-09-30T05:32:57.700Z,101413.32
2018-09-30T05:35:25.752Z,101419.36
2018-09-30T05:37:53.780Z,101414.29
2018-09-30T05:40:21.794Z,101417.35
2018-09-30T05:42:49.951Z,101413.55
2018-09-30T05:45:17.976Z,101414.02
2018-09-30T05:47:46.093Z,101406.75
2018-09-30T05:50:14.209Z,101411.86
2018-09-30T05:52:42.221Z,101413.48
2018-09-30T05:55:10.234Z,101410.80
2018-09-30T05:57:39.397Z,101410.78
2018-09-30T06:00:07.302Z,101413.32
2018-09-30T06:02:35.331Z,101413.69
2018-09-30T06:05:03.333Z,101408.52
2018-09-30T06:07:31.576Z,101404.98
2018-09-30T06:09:59.660Z,101404.12
2018-09-30T06:12:27.682Z,101399.76
2018-09-30T06:14:55.806Z,101401.38
2018-09-30T06:17:23.859Z,101401.27
2018-09-30T06:19:51.980Z,101402.50
2018-09-30T06:22:20.000Z,101398.52
2018-09-30T06:24:48.076Z,101395.45
2018-09-30T06:27:17.371Z,101395.41
2018-09-30T06:29:45.472Z,101398.30
2018-09-30T06:32:13.622Z,101402.50
2018-09-30T06:34:41.497Z,101410.62
2018-09-30T06:37:09.965Z,101413.95
2018-09-30T06:39:38.032Z,101410.45
2018-09-30T06:42:06.155Z,101417.71
2018-09-30T06:44:34.167Z,101418.08
2018-09-30T06:47:02.552Z,101411.56
2018-09-30T06:49:30.561Z,101414.08
2018-09-30T06:51:58.704Z,101410.53
2018-09-30T06:54:26.743Z,101412.51
2018-09-30T06:56:54.789Z,101422.23
2018-09-30T06:59:22.916Z,101419.16
2018-09-30T07:01:50.935Z,101416.78
2018-09-30T07:04:18.958Z,101421.77
2018-09-30T07:06:47.415Z,101413.83
2018-09-30T07:09:15.441Z,101408.07
2018-09-30T07:11:43.466Z,101418.23
2018-09-30T07:14:11.469Z,101414.58
2018-09-30T07:16:39.732Z,101412.63
2018-09-30T07:19:07.715Z,101408.56
2018-09-30T07:21:36.152Z,101402.75
2018-09-30T07:24:05.023Z,101406.80
2018-09-30T07:26:33.048Z,101402.58
2018-09-30T07:29:01.088Z,101403.94
2018-09-30T07:31:29.478Z,101398.92
2018-09-30T07:33:57.740Z,101397.83
2018-09-30T07:36:25.880Z,101402.30
2018-09-30T07:38:53.888Z,101401.98
2018-09-30T07:41:22.772Z,101399.53
2018-09-30T07:43:50.960Z,101396.67
2018-09-30T07:46:18.978Z,101393.01
2018-09-30T07:48:47.001Z,101392.64
2018-09-30T07:51:15.151Z,101388.72
2018-09-30T07:53:43.224Z,101393.40
2018-09-30T07:56:11.235Z,101391.58
2018-09-30T07:58:39.253Z,101395.94
2018-09-30T08:01:07.736Z,101391.52
2018-09-30T08:03:36.428Z,101392.84
2018-09-30T08:06:05.158Z,101388.20
2018-09-30T08:08:33.167Z,101393.64
2018-09-30T08:11:01.187Z,101393.52
2018-09-30T08:13:29.367Z,101390.16
2018-09-30T08:15:57.407Z,101395.67
2018-09-30T08:18:25.424Z,101393.61
2018-09-30T08:20:53.952Z,101388.31
2018-09-30T08:23:22.104Z,101390.23
2018-09-30T08:25:50.336Z,101389.95
2018-09-30T08:28:18.555Z,101392.19
2018-09-30T08:30:46.816Z,101382.93
2018-09-30T08:33:14.799Z,101364.80
2018-09-30T08:35:44.911Z,101376.07
2018-09-30T08:38:18.310Z,101375.20
2018-09-30T08:40:51.775Z,101371.70
2018-09-30T08:43:20.008Z,101367.85
2018-09-30T08:45:48.120Z,101366.48
2018-09-30T08:48:16.116Z,101364.95
2018-09-30T08:50:44.144Z,101362.96
2018-09-30T08:53:12.268Z,101364.81
2018-09-30T08:55:40.393Z,101360.11
2018-09-30T08:58:08.365Z,101356.59
2018-09-30T09:00:36.391Z,101353.59
2018-09-30T09:03:05.697Z,101351.87
2018-09-30T09:05:33.854Z,101346.73
2018-09-30T09:08:02.131Z,101345.69
2018-09-30T09:10:30.188Z,101348.41
2018-09-30T09:12:58.221Z,101339.13
2018-09-30T09:15:26.511Z,101343.09
2018-09-30T09:17:54.540Z,101340.41
2018-09-30T09:20:22.594Z,101346.86
2018-09-30T09:22:50.658Z,101336.84
2018-09-30T09:25:18.643Z,101328.41
2018-09-30T09:27:46.667Z,101334.12
2018-09-30T09:30:14.676Z,101330.22
2018-09-30T09:32:42.711Z,101327.77
2018-09-30T09:35:10.954Z,101321.61
2018-09-30T09:37:39.468Z,101327.37
2018-09-30T09:40:09.243Z,101321.96
2018-09-30T09:42:37.395Z,101321.11
2018-09-30T09:45:05.562Z,101317.78
2018-09-30T09:47:33.940Z,101311.80
2018-09-30T09:50:01.956Z,101302.36
2018-09-30T09:52:30.107Z,101303.52
2018-09-30T09:54:58.356Z,101296.74
2018-09-30T09:57:26.392Z,101296.16
2018-09-30T09:59:54.412Z,101293.37
2018-09-30T10:02:22.437Z,101286.09
2018-09-30T10:04:50.472Z,101286.47
2018-09-30T10:07:18.491Z,101272.91
2018-09-30T10:09:46.522Z,101284.70
2018-09-30T10:12:14.523Z,101292.88
2018-09-30T10:14:42.904Z,101285.80
2018-09-30T10:17:10.927Z,101281.45
2018-09-30T10:19:39.016Z,101272.86
2018-09-30T10:22:06.993Z,101275.66
2018-09-30T10:24:35.007Z,101272.94
2018-09-30T10:27:03.282Z,101269.01
2018-09-30T10:29:31.338Z,101263.16
2018-09-30T10:31:59.688Z,101264.58
2018-09-30T10:34:27.779Z,101255.45
2018-09-30T10:36:55.809Z,101255.08
2018-09-30T10:39:24.265Z,101254.69
2018-09-30T10:41:52.249Z,101254.77
2018-09-30T10:44:20.268Z,101249.63
2018-09-30T10:46:48.291Z,101250.34
2018-09-30T10:49:16.323Z,101248.17
2018-09-30T10:51:44.423Z,101237.30
2018-09-30T10:54:12.531Z,101241.80
2018-09-30T10:56:40.861Z,101237.89
2018-09-30T10:59:09.116Z,101231.98
2018-09-30T11:01:37.136Z,101229.95
2018-09-30T11:04:05.155Z,101227.89
2018-09-30T11:06:33.212Z,101232.13
2018-09-30T11:09:01.236Z,101228.36
2018-09-30T11:11:29.271Z,101228.89
2018-09-30T11:13:57.291Z,101231.31
2018-09-30T11:16:25.322Z,101230.98
2018-09-30T11:18:53.357Z,101229.22
2018-09-30T11:21:21.371Z,101223.89
2018-09-30T11:23:49.379Z,101220.88
2018-09-30T11:26:17.407Z,101218.18
2018-09-30T11:28:45.427Z,101220.37
2018-09-30T11:31:13.451Z,101218.66
2018-09-30T11:33:41.470Z,101209.80
2018-09-30T11:36:09.486Z,101208.12
2018-09-30T11:38:37.507Z,101208.39
2018-09-30T11:41:05.556Z,101202.20
2018-09-30T11:43:33.748Z,101194.45
2018-09-30T11:46:01.825Z,101191.69
2018-09-30T11:48:29.852Z,101192.02
2018-09-30T11:50:57.891Z,101184.80
2018-09-30T11:53:25.924Z,101185.26
2018-09-30T11:55:53.979Z,101184.80
2018-09-30T11:58:22.700Z,101174.42
2018-09-30T12:00:50.851Z,101173.38
2018-09-30T12:03:18.863Z,101167.68
2018-09-30T12:05:47.899Z,101164.44
2018-09-30T12:08:15.916Z,101162.34
2018-09-30T12:10:44.001Z,101160.98
2018-09-30T12:13:12.019Z,101151.03
2018-09-30T12:15:40.183Z,101143.51
2018-09-30T12:18:08.203Z,101146.81
2018-09-30T12:20:36.224Z,101145.63
2018-09-30T12:23:05.911Z,101137.41
2018-09-30T12:25:33.927Z,101133.33
2018-09-30T12:28:01.956Z,101131.86
2018-09-30T12:30:29.991Z,101120.67
2018-09-30T12:32:58.048Z,101123.53
2018-09-30T12:35:26.068Z,101119.69
2018-09-30T12:37:54.236Z,101116.62
2018-09-30T12:40:22.260Z,101118.02
2018-09-30T12:42:50.276Z,101115.74
2018-09-30T12:45:18.300Z,101115.03
2018-09-30T12:47:46.308Z,101117.52
2018-09-30T12:50:14.343Z,101109.94
2018-09-30T12:52:42.995Z,101116.13
2018-09-30T12:55:11.003Z,101109.83
2018-09-30T12:57:39.019Z,101099.92
2018-09-30T13:00:07.924Z,101094.59
2018-09-30T13:02:35.947Z,101096.52
2018-09-30T13:05:03.959Z,101097.15
2018-09-30T13:07:31.976Z,101093.31
2018-09-30T13:10:00.145Z,101095.06
2018-09-30T13:12:28.165Z,101089.27
2018-09-30T13:14:56.183Z,101093.31
2018-09-30T13:17:24.215Z,101085.56
2018-09-30T13:19:52.227Z,101081.05
2018-09-30T13:22:20.257Z,101079.88
2018-09-30T13:24:48.279Z,101075.00
2018-09-30T13:27:16.284Z,101076.69
2018-09-30T13:29:44.323Z,101075.70
2018-09-30T13:32:12.343Z,101068.32
2018-09-30T13:34:40.367Z,101071.52
2018-09-30T13:37:08.377Z,101067.87
2018-09-30T13:39:36.465Z,101067.40
2018-09-30T13:42:04.663Z,101072.21
2018-09-30T13:44:32.667Z,101065.90
2018-09-30T13:47:00.874Z,101059.15
2018-09-30T13:49:29.528Z,101057.50
2018-09-30T13:51:57.544Z,101052.36
2018-09-30T13:54:25.711Z,101053.75
2018-09-30T13:56:53.720Z,101052.83
2018-09-30T13:59:22.257Z,101047.00
2018-09-30T14:01:50.287Z,101042.82
2018-09-30T14:04:18.307Z,101043.84
2018-09-30T14:06:46.357Z,101044.14
2018-09-30T14:09:14.478Z,101044.80
2018-09-30T14:11:42.492Z,101044.72
2018-09-30T14:14:10.496Z,101042.07
2018-09-30T14:16:38.588Z,101038.88
2018-09-30T14:19:06.647Z,101032.31
2018-09-30T14:21:34.659Z,101027.03
2018-09-30T14:24:02.688Z,101022.26
2018-09-30T14:26:31.247Z,101016.98
2018-09-30T14:28:59.283Z,101017.20
2018-09-30T14:31:27.325Z,101020.32
2018-09-30T14:36:35.440Z,101012.53
2018-09-30T14:39:05.016Z,101011.06
2018-09-30T14:41:33.032Z,101016.13
2018-09-30T14:44:01.037Z,101018.48
2018-09-30T14:46:29.043Z,101015.95
2018-09-30T14:48:57.056Z,101018.82
2018-09-30T14:51:25.063Z,101015.63
2018-09-30T14:53:53.115Z,101015.77
2018-09-30T14:56:21.090Z,101011.73
2018-09-30T14:58:49.102Z,101015.85
2018-09-30T15:01:17.131Z,101017.56
2018-09-30T15:03:45.184Z,101017.28
2018-09-30T15:06:13.223Z,101025.34
2018-09-30T15:08:41.248Z,101026.56
2018-09-30T15:11:09.328Z,101028.75
2018-09-30T15:13:37.344Z,101020.52
2018-09-30T15:16:05.356Z,101016.28
2018-09-30T15:18:33.538Z,101019.86
2018-09-30T15:21:01.748Z,101019.53
2018-09-30T15:23:29.760Z,101016.05
2018-09-30T15:25:57.788Z,101017.00
2018-09-30T15:28:25.826Z,101011.02
2018-09-30T15:30:53.863Z,101013.41
2018-09-30T15:33:22.110Z,101008.39
2018-09-30T15:35:50.127Z,101006.64
2018-09-30T15:38:18.151Z,101009.19
2018-09-30T15:40:46.579Z,101000.01
2018-09-30T15:43:14.749Z,101001.09
2018-09-30T15:45:42.777Z,100998.45
2018-09-30T15:48:10.792Z,100992.48
2018-09-30T15:50:38.971Z,100989.36
2018-09-30T15:53:07.178Z,100991.89
2018-09-30T15:55:35.198Z,100995.89
2018-09-30T15:58:03.235Z,100996.16
2018-09-30T16:00:31.257Z,100996.17
2018-09-30T16:02:59.280Z,100992.83
2018-09-30T16:05:27.305Z,100994.42
2018-09-30T16:07:55.444Z,100989.30
2018-09-30T16:10:23.475Z,100992.11
2018-09-30T16:12:51.859Z,100989.50
2018-09-30T16:15:19.821Z,100989.87
2018-09-30T16:17:47.854Z,100981.64
2018-09-30T16:20:15.883Z,100984.64
2018-09-30T16:22:43.919Z,100980.59
2018-09-30T16:25:12.038Z,100987.78
2018-09-30T16:27:40.068Z,100989.47
2018-09-30T16:30:08.092Z,100981.00
2018-09-30T16:32:36.148Z,100986.26
2018-09-30T16:35:05.142Z,100980.16
2018-09-30T16:37:33.150Z,100983.25
2018-09-30T16:40:01.814Z,100981.94
2018-09-30T16:42:29.827Z,100987.81
2018-09-30T16:44:57.896Z,100987.95
2018-09-30T16:47:25.944Z,101001.81
2018-09-30T16:49:54.012Z,100997.53
2018-09-30T16:52:22.052Z,101007.69
2018-09-30T16:54:50.076Z,101006.16
2018-09-30T16:57:18.103Z,101008.59
2018-09-30T16:59:46.167Z,101006.42
2018-09-30T17:02:14.200Z,101008.47
2018-09-30T17:04:42.227Z,101013.86
2018-09-30T17:07:10.276Z,101015.42
2018-09-30T17:09:38.300Z,101026.77
2018-09-30T17:12:06.476Z,101028.33
2018-09-30T17:14:34.492Z,101021.74
2018-09-30T17:17:02.524Z,101024.38
2018-09-30T17:19:30.556Z,101023.66
2018-09-30T17:21:58.595Z,101024.63
2018-09-30T17:24:27.276Z,101021.29
2018-09-30T17:26:55.443Z,101026.31
2018-09-30T17:29:23.488Z,101028.70
2018-09-30T17:31:51.567Z,101026.80
2018-09-30T17:34:19.756Z,101028.46
2018-09-30T17:36:47.775Z,101025.11
2018-09-30T17:39:15.804Z,101028.34
2018-09-30T17:41:44.528Z,101031.83
2018-09-30T17:44:12.544Z,101033.74
2018-09-30T17:46:40.580Z,101035.66
2018-09-30T17:49:08.632Z,101035.41
2018-09-30T17:51:36.676Z,101031.34
2018-09-30T17:54:04.784Z,101035.30
2018-09-30T17:56:32.836Z,101036.61
2018-09-30T17:59:01.188Z,101030.52
2018-09-30T18:01:29.208Z,101026.33
2018-09-30T18:03:57.235Z,101030.36
2018-09-30T18:06:25.243Z,101032.39
2018-09-30T18:08:53.298Z,101029.30
2018-09-30T18:11:21.332Z,101032.64
2018-09-30T18:13:49.352Z,101033.46
2018-09-30T18:16:17.761Z,101031.80
2018-09-30T18:18:45.789Z,101034.39
2018-09-30T18:21:13.816Z,101030.70
2018-09-30T18:23:41.910Z,101029.27
2018-09-30T18:26:09.893Z,101021.00
2018-09-30T18:28:37.916Z,101020.63
2018-09-30T18:31:05.999Z,101022.48
2018-09-30T18:33:34.028Z,101021.30
2018-09-30T18:36:02.257Z,101020.45
2018-09-30T18:38:30.276Z,101019.52
2018-09-30T18:40:58.299Z,101013.28
2018-09-30T18:43:26.336Z,101019.97
2018-09-30T18:45:54.347Z,101013.50
2018-09-30T18:48:22.385Z,101016.71
2018-09-30T18:50:50.424Z,101014.20
2018-09-30T18:53:18.452Z,101018.39
2018-09-30T18:55:46.541Z,101013.95
2018-09-30T18:58:14.570Z,101015.98
2018-09-30T19:00:42.595Z,101011.11
2018-09-30T19:03:10.647Z,101009.42
2018-09-30T19:05:38.681Z,101001.20
2018-09-30T19:08:06.740Z,101000.10
2018-09-30T19:10:35.156Z,100992.00
2018-09-30T19:13:03.202Z,100992.94
2018-09-30T19:15:31.252Z,100990.06
2018-09-30T19:17:59.291Z,100995.77
2018-09-30T19:20:27.320Z,101004.00
2018-09-30T19:22:55.402Z,101002.89
2018-09-30T19:25:23.375Z,101006.89
2018-09-30T19:27:51.444Z,101003.78
2018-09-30T19:30:19.487Z,101002.45
2018-09-30T19:32:47.592Z,101007.30
2018-09-30T19:35:15.692Z,101006.92
2018-09-30T19:37:43.719Z,101011.53
2018-09-30T19:40:11.747Z,101008.39
2018-09-30T19:42:39.775Z,101011.83
2018-09-30T19:45:14.582Z,101005.12
2018-09-30T19:47:42.624Z,101011.56
2018-09-30T19:50:10.851Z,101010.08
2018-09-30T19:52:39.039Z,101004.80
2018-09-30T19:55:07.077Z,101005.76
2018-09-30T19:57:35.110Z,101003.92
2018-09-30T20:00:03.323Z,101006.04
2018-09-30T20:02:31.348Z,101006.23
2018-09-30T20:04:59.396Z,101003.84
2018-09-30T20:07:27.415Z,100997.88
2018-09-30T20:09:55.456Z,100999.77
2018-09-30T20:12:23.483Z,101001.50
2018-09-30T20:14:51.508Z,100990.29
2018-09-30T20:17:19.547Z,101001.43
2018-09-30T20:19:47.568Z,100997.57
2018-09-30T20:22:15.600Z,100991.33
2018-09-30T20:24:44.517Z,100990.33
2018-09-30T20:27:12.520Z,100991.64
2018-09-30T20:29:40.612Z,100990.55
2018-09-30T20:32:08.655Z,100994.22
2018-09-30T20:34:43.316Z,100990.52
2018-09-30T20:37:11.440Z,100991.17
2018-09-30T20:39:39.424Z,100992.97
2018-09-30T20:42:07.447Z,101002.22
2018-09-30T20:44:35.488Z,100989.70
2018-09-30T20:47:04.540Z,100996.36
2018-09-30T20:49:32.580Z,100992.66
2018-09-30T20:52:00.632Z,100997.73
2018-09-30T20:54:28.773Z,100988.76
2018-09-30T20:56:56.967Z,100993.26
2018-09-30T20:59:24.988Z,100990.53
2018-09-30T21:01:53.042Z,101000.08
2018-09-30T21:04:21.239Z,100993.83
2018-09-30T21:06:49.282Z,100986.09
2018-09-30T21:09:18.672Z,100991.62
2018-09-30T21:11:46.963Z,100996.13
2018-09-30T21:14:31.899Z,101000.27
2018-09-30T21:16:59.919Z,100997.08
2018-09-30T21:19:27.967Z,100990.89
2018-09-30T21:21:56.008Z,100989.97
2018-09-30T21:24:24.191Z,100988.66
2018-09-30T21:26:52.207Z,100986.50
2018-09-30T21:29:20.220Z,100986.12
2018-09-30T21:31:48.263Z,100977.23
2018-09-30T21:34:16.370Z,100985.70
2018-09-30T21:36:44.332Z,100979.44
2018-09-30T21:39:12.491Z,100982.05
2018-09-30T21:41:40.515Z,100976.36
2018-09-30T21:44:08.767Z,100984.09
2018-09-30T21:46:37.158Z,100976.98
2018-09-30T21:49:05.226Z,100974.47
2018-09-30T21:51:33.452Z,100970.44
2018-09-30T21:54:01.501Z,100969.51
2018-09-30T21:56:29.714Z,100970.59
2018-09-30T21:58:57.732Z,100967.05
2018-09-30T22:01:25.845Z,100968.71
2018-09-30T22:03:53.804Z,100970.32
2018-09-30T22:06:21.843Z,100967.05
2018-09-30T22:08:49.889Z,100965.90
2018-09-30T22:11:17.919Z,100965.78
2018-09-30T22:13:45.951Z,100964.94
2018-09-30T22:16:13.974Z,100961.23
2018-09-30T22:18:41.995Z,100958.81
2018-09-30T22:21:10.024Z,100959.20
2018-09-30T22:23:38.056Z,100959.27
2018-09-30T22:26:06.088Z,100962.47
2018-09-30T22:28:34.117Z,100958.81
2018-09-30T22:31:02.144Z,100967.28
2018-09-30T22:33:30.188Z,100967.28
2018-09-30T22:35:58.232Z,100964.59
2018-09-30T22:38:26.256Z,100961.39
2018-09-30T22:40:54.269Z,100953.54
2018-09-30T22:43:22.311Z,100963.74
2018-09-30T22:45:50.367Z,100962.63
2018-09-30T22:48:18.396Z,100966.94
2018-09-30T22:50:47.423Z,100967.20
2018-09-30T22:53:15.491Z,100959.44
2018-09-30T22:55:43.800Z,100953.62
2018-09-30T22:58:11.823Z,100948.38
2018-09-30T23:00:39.844Z,100950.19
2018-09-30T23:03:07.867Z,100944.95
2018-09-30T23:05:35.872Z,100942.22
2018-09-30T23:08:04.623Z,100938.64
2018-09-30T23:10:32.636Z,100940.69
2018-09-30T23:13:00.664Z,100940.34
2018-09-30T23:15:28.696Z,100944.84
2018-09-30T23:17:56.703Z,100943.27
2018-09-30T23:20:24.729Z,100944.30
2018-09-30T23:22:52.784Z,100943.14
2018-09-30T23:25:20.814Z,100946.50
2018-09-30T23:27:48.828Z,100944.27
2018-09-30T23:30:17.003Z,100941.64
2018-09-30T23:32:45.021Z,100948.87
2018-09-30T23:35:13.028Z,100947.77
2018-09-30T23:37:41.055Z,100943.68
2018-09-30T23:40:09.080Z,100949.03
2018-09-30T23:42:37.239Z,100946.25
2018-09-30T23:45:05.496Z,100949.33
2018-09-30T23:47:33.519Z,100955.53
2018-09-30T23:50:01.553Z,100944.89
2018-09-30T23:52:29.672Z,100944.89
2018-09-30T23:54:57.694Z,100946.55
2018-09-30T23:57:25.736Z,100943.20
2018-09-30T23:59:53.815Z,100948.82
